createdAt,value
2019-03-16T00:00:42.854Z,6.90
2019-03-16T00:05:48.936Z,4.33
2019-03-16T00:10:54.963Z,15.43
2019-03-16T00:16:00.984Z,9.73
2019-03-16T00:21:06.938Z,5.50
2019-03-16T00:26:12.767Z,2.97
2019-03-16T00:31:18.767Z,7.87
2019-03-16T00:36:24.612Z,7.37
2019-03-16T00:41:30.707Z,6.00
2019-03-16T00:46:36.705Z,10.33
2019-03-16T00:51:42.948Z,10.83
2019-03-16T00:56:48.852Z,6.07
2019-03-16T01:01:54.864Z,11.00
2019-03-16T01:07:00.758Z,9.80
2019-03-16T01:12:06.789Z,8.40
2019-03-16T01:17:22.038Z,9.10
2019-03-16T01:22:27.896Z,5.33
2019-03-16T01:27:33.989Z,10.53
2019-03-16T01:32:41.038Z,5.23
2019-03-16T01:37:46.939Z,9.03
2019-03-16T01:42:52.821Z,10.93
2019-03-16T01:47:58.783Z,9.63
2019-03-16T01:53:05.600Z,11.67
2019-03-16T01:58:11.525Z,10.23
2019-03-16T02:03:17.534Z,6.90
2019-03-16T02:08:23.404Z,7.67
2019-03-16T02:13:29.269Z,8.83
2019-03-16T02:18:35.146Z,5.30
2019-03-16T02:23:41.330Z,11.10
2019-03-16T02:28:47.406Z,5.47
2019-03-16T02:33:53.316Z,9.97
2019-03-16T02:38:59.171Z,6.40
2019-03-16T02:44:05.363Z,9.93
2019-03-16T02:49:11.194Z,7.47
2019-03-16T02:54:18.088Z,6.90
2019-03-16T02:59:23.965Z,10.17
2019-03-16T03:04:29.873Z,16.67
2019-03-16T03:09:35.805Z,8.47
2019-03-16T03:14:41.663Z,10.73
2019-03-16T03:19:47.539Z,10.07
2019-03-16T03:24:53.547Z,11.37
2019-03-16T03:30:00.570Z,4.93
2019-03-16T03:35:08.138Z,12.40
2019-03-16T03:40:14.115Z,2.53
2019-03-16T03:45:20.074Z,10.57
2019-03-16T03:50:25.934Z,9.90
2019-03-16T03:55:31.876Z,12.47
2019-03-16T04:00:39.072Z,13.33
2019-03-16T04:05:45.003Z,8.77
2019-03-16T04:10:50.975Z,10.03
2019-03-16T04:15:56.915Z,11.87
2019-03-16T04:21:08.752Z,7.70
2019-03-16T04:26:13.802Z,13.97
2019-03-16T04:31:19.063Z,13.03
2019-03-16T04:36:25.000Z,15.60
2019-03-16T04:41:31.419Z,16.07
2019-03-16T04:46:42.502Z,9.27
2019-03-16T04:51:47.566Z,12.83
2019-03-16T04:56:52.612Z,7.07
2019-03-16T05:01:57.667Z,7.60
2019-03-16T05:07:02.721Z,8.53
2019-03-16T05:12:07.772Z,11.43
2019-03-16T05:17:15.990Z,9.50
2019-03-16T05:22:21.203Z,11.17
2019-03-16T05:27:26.372Z,11.87
2019-03-16T05:32:31.787Z,6.60
2019-03-16T05:37:37.532Z,6.63
2019-03-16T05:42:42.730Z,9.43
2019-03-16T05:47:47.765Z,12.40
2019-03-16T05:52:52.826Z,13.50
2019-03-16T05:57:58.042Z,10.03
2019-03-16T06:03:05.087Z,11.13
2019-03-16T06:08:10.209Z,11.87
2019-03-16T06:13:15.092Z,8.63
2019-03-16T06:18:20.103Z,14.07
2019-03-16T06:23:25.051Z,11.57
2019-03-16T06:28:30.017Z,12.57
2019-03-16T06:33:41.355Z,11.07
2019-03-16T06:38:46.351Z,11.70
2019-03-16T06:43:51.417Z,13.00
2019-03-16T06:48:56.480Z,12.50
2019-03-16T06:54:01.727Z,12.33
2019-03-16T06:59:07.270Z,14.57
2019-03-16T07:04:16.899Z,12.77
2019-03-16T07:09:23.038Z,12.97
2019-03-16T07:14:30.051Z,10.67
2019-03-16T07:19:35.173Z,10.53
2019-03-16T07:24:40.147Z,9.73
2019-03-16T07:29:45.063Z,12.23
2019-03-16T07:34:50.114Z,9.67
2019-03-16T07:39:55.269Z,19.57
2019-03-16T07:45:08.011Z,10.40
2019-03-16T07:50:11.036Z,15.47
2019-03-16T07:55:16.917Z,13.90
2019-03-16T08:00:22.883Z,12.90
2019-03-16T08:05:31.437Z,12.27
2019-03-16T08:10:37.259Z,12.77
2019-03-16T08:15:44.114Z,10.43
2019-03-16T08:20:50.874Z,13.63
2019-03-16T08:25:57.102Z,8.23
2019-03-16T08:31:03.107Z,12.60
2019-03-16T08:36:08.970Z,13.23
2019-03-16T08:41:14.957Z,10.47
2019-03-16T08:46:20.789Z,9.73
2019-03-16T08:51:26.625Z,9.37
2019-03-16T08:56:32.519Z,10.83
2019-03-16T09:01:38.781Z,13.50
2019-03-16T09:06:44.810Z,15.17
2019-03-16T09:11:50.691Z,13.83
2019-03-16T09:16:56.553Z,5.33
2019-03-16T09:22:02.318Z,9.90
2019-03-16T09:27:08.294Z,13.27
2019-03-16T09:32:14.268Z,11.87
2019-03-16T09:37:20.135Z,14.10
2019-03-16T09:42:26.109Z,12.60
2019-03-16T09:47:32.396Z,11.13
2019-03-16T09:52:39.869Z,12.83
2019-03-16T09:57:45.879Z,12.17
2019-03-16T10:02:51.745Z,11.63
2019-03-16T10:07:57.823Z,11.67
2019-03-16T10:13:04.000Z,9.77
2019-03-16T10:18:09.976Z,8.40
2019-03-16T10:23:15.900Z,11.27
2019-03-16T10:28:23.438Z,7.97
2019-03-16T10:33:30.312Z,10.77
2019-03-16T10:38:38.419Z,8.97
2019-03-16T10:43:43.975Z,14.10
2019-03-16T10:48:49.941Z,13.20
2019-03-16T10:53:55.929Z,15.87
2019-03-16T10:59:01.859Z,8.17
2019-03-16T11:04:07.864Z,14.13
2019-03-16T11:09:13.840Z,12.33
2019-03-16T11:14:19.788Z,13.50
2019-03-16T11:19:26.142Z,9.27
2019-03-16T11:24:32.057Z,10.70
2019-03-16T11:29:38.225Z,9.17
2019-03-16T11:34:44.515Z,7.43
2019-03-16T11:39:50.525Z,12.00
2019-03-16T11:44:56.599Z,9.60
2019-03-16T11:50:02.413Z,11.20
2019-03-16T11:55:11.584Z,11.00
2019-03-16T12:00:17.860Z,6.07
2019-03-16T12:05:23.638Z,9.03
2019-03-16T12:10:29.712Z,8.57
2019-03-16T12:15:35.547Z,10.33
2019-03-16T12:20:41.621Z,10.27
2019-03-16T12:25:49.032Z,9.87
2019-03-16T12:30:55.002Z,7.53
2019-03-16T12:36:01.022Z,13.30
2019-03-16T12:41:07.259Z,9.33
2019-03-16T12:46:13.091Z,10.67
2019-03-16T12:51:18.945Z,12.27
2019-03-16T12:56:24.986Z,9.87
2019-03-16T13:01:30.711Z,8.80
2019-03-16T13:06:37.159Z,7.07
2019-03-16T13:11:44.544Z,13.70
2019-03-16T13:16:50.520Z,8.60
2019-03-16T13:21:56.782Z,8.83
2019-03-16T13:27:03.763Z,7.27
2019-03-16T13:32:10.083Z,7.27
2019-03-16T13:37:16.446Z,15.10
2019-03-16T13:42:22.524Z,10.20
2019-03-16T13:47:28.302Z,8.50
2019-03-16T13:52:34.413Z,5.93
2019-03-16T13:57:40.274Z,6.47
2019-03-16T14:02:46.847Z,4.67
2019-03-16T14:07:53.952Z,11.13
2019-03-16T14:13:00.003Z,7.03
2019-03-16T14:18:05.979Z,11.20
2019-03-16T14:23:12.267Z,6.17
2019-03-16T14:28:18.865Z,6.20
2019-03-16T14:33:25.655Z,9.13
2019-03-16T14:38:31.579Z,7.67
2019-03-16T14:43:37.778Z,6.17
2019-03-16T14:48:44.084Z,8.30
2019-03-16T14:53:51.188Z,5.13
2019-03-16T14:58:58.693Z,6.10
2019-03-16T15:04:05.155Z,4.27
2019-03-16T15:09:11.225Z,8.03
2019-03-16T15:14:21.949Z,4.87
2019-03-16T15:19:25.151Z,7.30
2019-03-16T15:24:31.017Z,5.07
2019-03-16T15:29:37.303Z,5.33
2019-03-16T15:34:43.271Z,6.53
2019-03-16T15:39:50.296Z,5.80
2019-03-16T15:44:56.136Z,6.97
2019-03-16T15:50:02.117Z,7.27
2019-03-16T15:55:09.315Z,10.10
2019-03-16T16:00:16.599Z,4.67
2019-03-16T16:05:22.709Z,6.90
2019-03-16T16:10:28.503Z,6.70
2019-03-16T16:15:34.347Z,4.27
2019-03-16T16:20:40.219Z,5.60
2019-03-16T16:25:46.287Z,3.20
2019-03-16T16:30:52.213Z,5.03
2019-03-16T16:35:58.336Z,5.47
2019-03-16T16:41:04.853Z,5.97
2019-03-16T16:46:10.757Z,6.40
2019-03-16T16:51:16.766Z,4.87
2019-03-16T16:56:22.925Z,4.90
2019-03-16T17:01:29.775Z,6.70
2019-03-16T17:06:35.724Z,3.60
2019-03-16T17:11:41.785Z,4.53
2019-03-16T17:16:47.861Z,3.80
2019-03-16T17:21:54.093Z,5.03
2019-03-16T17:26:59.914Z,4.27
2019-03-16T17:32:06.000Z,2.53
2019-03-16T17:37:12.005Z,4.03
2019-03-16T17:42:17.782Z,2.87
2019-03-16T17:47:23.618Z,3.37
2019-03-16T17:52:29.506Z,5.00
2019-03-16T17:57:36.360Z,3.33
2019-03-16T18:02:51.291Z,5.10
2019-03-16T18:07:50.372Z,4.00
2019-03-16T18:12:56.273Z,3.40
2019-03-16T18:18:02.178Z,3.53
2019-03-16T18:23:08.089Z,4.90
2019-03-16T18:28:14.266Z,4.60
2019-03-16T18:33:20.423Z,5.20
2019-03-16T18:38:26.319Z,5.53
2019-03-16T18:43:32.284Z,4.90
2019-03-16T18:48:38.708Z,5.30
2019-03-16T18:53:47.137Z,4.83
2019-03-16T19:04:36.388Z,4.27
2019-03-16T19:09:42.249Z,4.40
2019-03-16T19:14:48.378Z,4.40
2019-03-16T19:19:54.756Z,4.80
2019-03-16T19:25:00.833Z,4.23
2019-03-16T19:30:12.208Z,3.90
2019-03-16T19:35:18.006Z,4.57
2019-03-16T19:40:24.716Z,4.37
2019-03-16T19:45:30.978Z,5.20
2019-03-16T19:50:36.987Z,5.77
2019-03-16T19:55:42.939Z,6.90
2019-03-16T20:00:48.794Z,5.40
2019-03-16T20:05:54.673Z,6.33
2019-03-16T20:11:06.384Z,6.80
2019-03-16T20:16:08.034Z,7.63
2019-03-16T20:21:13.913Z,7.97
2019-03-16T20:26:19.810Z,8.37
2019-03-16T20:31:25.593Z,9.60
2019-03-16T20:36:31.629Z,11.03
2019-03-16T20:41:38.937Z,12.53
2019-03-16T20:46:44.802Z,13.00
2019-03-16T20:51:50.683Z,14.90
2019-03-16T20:56:56.543Z,14.80
2019-03-16T21:02:02.808Z,14.80
2019-03-16T21:07:08.915Z,16.20
2019-03-16T21:12:14.783Z,15.53
2019-03-16T21:17:20.722Z,14.17
2019-03-16T21:22:35.582Z,15.53
2019-03-16T21:27:35.264Z,15.13
2019-03-16T21:32:41.744Z,14.60
2019-03-16T21:37:48.642Z,15.43
2019-03-16T21:42:54.519Z,15.30
2019-03-16T21:48:00.545Z,15.50
2019-03-16T21:53:06.809Z,18.17
2019-03-16T21:58:12.746Z,16.73
2019-03-16T22:03:18.600Z,17.70
2019-03-16T22:08:24.898Z,16.95
2019-03-16T22:13:30.684Z,17.20
2019-03-16T22:18:37.349Z,17.20
2019-03-16T22:23:43.184Z,16.63
2019-03-16T22:28:49.303Z,15.13
2019-03-16T22:33:55.188Z,16.37
2019-03-16T22:39:01.257Z,16.70
2019-03-16T22:44:08.547Z,14.77
2019-03-16T22:49:14.305Z,12.70
2019-03-16T22:54:20.191Z,13.67
2019-03-16T22:59:26.169Z,13.47
2019-03-16T23:04:32.042Z,11.13
2019-03-16T23:09:37.911Z,11.20
2019-03-16T23:14:43.689Z,12.53
2019-03-16T23:19:51.069Z,11.27
2019-03-16T23:24:56.745Z,10.67
2019-03-16T23:30:02.628Z,9.10
2019-03-16T23:35:10.453Z,9.30
2019-03-16T23:40:16.298Z,10.10
2019-03-16T23:45:22.167Z,10.03
2019-03-16T23:50:28.044Z,9.47
2019-03-16T23:55:33.920Z,9.43
